sensor_id;sensor_type;location;lat;lon;timestamp;pressure;altitude;pressure_sealevel;temperature;humidity
39197;BME280;42889;51.112;13.772;2022-11-15T00:02:15;99149.28;;;6.28;100.00
39197;BME280;42889;51.112;13.772;2022-11-15T00:05:02;99138.00;;;6.25;100.00
39197;BME280;42889;51.112;13.772;2022-11-15T00:07:48;99133.59;;;6.14;100.00
39197;BME280;42889;51.112;13.772;2022-11-15T00:10:40;99135.63;;;6.01;100.00
39197;BME280;42889;51.112;13.772;2022-11-15T00:13:26;99141.00;;;5.90;100.00
39197;BME280;42889;51.112;13.772;2022-11-15T00:16:12;99138.22;;;5.80;100.00
39197;BME280;42889;51.112;13.772;2022-11-15T00:18:57;99131.16;;;5.90;100.00
39197;BME280;42889;51.112;13.772;2022-11-15T00:21:44;99132.38;;;5.86;100.00
39197;BME280;42889;51.112;13.772;2022-11-15T00:24:30;99136.53;;;5.79;100.00
39197;BME280;42889;51.112;13.772;2022-11-15T00:27:28;99126.53;;;5.92;100.00
39197;BME280;42889;51.112;13.772;2022-11-15T00:30:13;99127.00;;;5.65;100.00
39197;BME280;42889;51.112;13.772;2022-11-15T00:33:04;99139.09;;;5.80;100.00
39197;BME280;42889;51.112;13.772;2022-11-15T00:35:51;99127.78;;;5.88;100.00
39197;BME280;42889;51.112;13.772;2022-11-15T00:38:39;99133.94;;;5.68;100.00
39197;BME280;42889;51.112;13.772;2022-11-15T00:41:25;99130.19;;;5.59;100.00
39197;BME280;42889;51.112;13.772;2022-11-15T00:44:11;99130.50;;;5.45;100.00
39197;BME280;42889;51.112;13.772;2022-11-15T00:46:57;99135.47;;;5.49;100.00
39197;BME280;42889;51.112;13.772;2022-11-15T00:49:45;99129.53;;;5.78;100.00
39197;BME280;42889;51.112;13.772;2022-11-15T00:52:31;99127.47;;;6.02;100.00
39197;BME280;42889;51.112;13.772;2022-11-15T00:55:18;99133.53;;;6.04;100.00
39197;BME280;42889;51.112;13.772;2022-11-15T00:58:04;99130.22;;;6.12;100.00
39197;BME280;42889;51.112;13.772;2022-11-15T01:00:49;99127.84;;;6.19;100.00
39197;BME280;42889;51.112;13.772;2022-11-15T01:03:36;99124.88;;;6.12;100.00
39197;BME280;42889;51.112;13.772;2022-11-15T01:06:22;99121.09;;;5.94;100.00
39197;BME280;42889;51.112;13.772;2022-11-15T01:09:28;99128.97;;;5.95;100.00
39197;BME280;42889;51.112;13.772;2022-11-15T01:12:13;99118.53;;;5.92;100.00
39197;BME280;42889;51.112;13.772;2022-11-15T01:14:59;99121.75;;;5.75;100.00
39197;BME280;42889;51.112;13.772;2022-11-15T01:17:44;99107.31;;;5.77;100.00
39197;BME280;42889;51.112;13.772;2022-11-15T01:20:30;99112.38;;;5.80;100.00
39197;BME280;42889;51.112;13.772;2022-11-15T01:23:16;99110.88;;;5.99;100.00
39197;BME280;42889;51.112;13.772;2022-11-15T01:26:03;99114.84;;;6.04;100.00
39197;BME280;42889;51.112;13.772;2022-11-15T01:28:50;99110.81;;;6.10;100.00
39197;BME280;42889;51.112;13.772;2022-11-15T01:32:02;99108.75;;;6.02;100.00
39197;BME280;42889;51.112;13.772;2022-11-15T01:34:47;99102.25;;;6.16;100.00
39197;BME280;42889;51.112;13.772;2022-11-15T01:37:33;99098.34;;;5.99;100.00
39197;BME280;42889;51.112;13.772;2022-11-15T01:40:19;99096.84;;;6.27;100.00
39197;BME280;42889;51.112;13.772;2022-11-15T01:43:27;99086.44;;;6.34;100.00
39197;BME280;42889;51.112;13.772;2022-11-15T01:49:14;99085.28;;;6.57;100.00
39197;BME280;42889;51.112;13.772;2022-11-15T01:52:04;99077.69;;;6.63;100.00
39197;BME280;42889;51.112;13.772;2022-11-15T01:55:14;99077.84;;;6.61;100.00
39197;BME280;42889;51.112;13.772;2022-11-15T01:58:04;99071.66;;;6.60;100.00
39197;BME280;42889;51.112;13.772;2022-11-15T02:01:01;99073.47;;;6.60;100.00
39197;BME280;42889;51.112;13.772;2022-11-15T02:07:45;99077.00;;;6.60;100.00
39197;BME280;42889;51.112;13.772;2022-11-15T02:10:31;99072.38;;;6.32;100.00
39197;BME280;42889;51.112;13.772;2022-11-15T02:13:17;99066.91;;;6.33;100.00
39197;BME280;42889;51.112;13.772;2022-11-15T02:31:51;99058.41;;;6.59;100.00
39197;BME280;42889;51.112;13.772;2022-11-15T02:37:51;99055.91;;;6.67;100.00
39197;BME280;42889;51.112;13.772;2022-11-15T02:41:43;99038.06;;;6.77;100.00
39197;BME280;42889;51.112;13.772;2022-11-15T02:44:47;99032.84;;;6.85;100.00
39197;BME280;42889;51.112;13.772;2022-11-15T02:47:39;99031.31;;;6.83;100.00
39197;BME280;42889;51.112;13.772;2022-11-15T02:50:37;99027.22;;;6.79;100.00
39197;BME280;42889;51.112;13.772;2022-11-15T02:53:27;99023.63;;;6.59;100.00
39197;BME280;42889;51.112;13.772;2022-11-15T02:56:13;99019.69;;;6.44;100.00
39197;BME280;42889;51.112;13.772;2022-11-15T03:02:06;99016.78;;;6.26;100.00
39197;BME280;42889;51.112;13.772;2022-11-15T03:06:14;99014.19;;;6.05;100.00
39197;BME280;42889;51.112;13.772;2022-11-15T03:09:40;99011.22;;;5.87;100.00
39197;BME280;42889;51.112;13.772;2022-11-15T03:12:55;99014.09;;;5.53;100.00
39197;BME280;42889;51.112;13.772;2022-11-15T03:16:00;99008.69;;;5.44;100.00
39197;BME280;42889;51.112;13.772;2022-11-15T03:19:11;99010.06;;;5.38;100.00
39197;BME280;42889;51.112;13.772;2022-11-15T03:21:59;99006.81;;;5.35;100.00
39197;BME280;42889;51.112;13.772;2022-11-15T03:25:43;99011.97;;;5.47;100.00
39197;BME280;42889;51.112;13.772;2022-11-15T03:32:03;98998.75;;;5.46;100.00
39197;BME280;42889;51.112;13.772;2022-11-15T03:34:53;98997.34;;;5.10;100.00
39197;BME280;42889;51.112;13.772;2022-11-15T03:37:48;98992.75;;;5.12;100.00
39197;BME280;42889;51.112;13.772;2022-11-15T03:40:39;98988.88;;;4.72;100.00
39197;BME280;42889;51.112;13.772;2022-11-15T03:47:16;98995.38;;;4.91;100.00
39197;BME280;42889;51.112;13.772;2022-11-15T03:50:02;98986.47;;;5.01;100.00
39197;BME280;42889;51.112;13.772;2022-11-15T03:52:50;98981.72;;;5.05;100.00
39197;BME280;42889;51.112;13.772;2022-11-15T03:55:36;98985.44;;;4.82;100.00
39197;BME280;42889;51.112;13.772;2022-11-15T03:58:23;98986.38;;;4.92;100.00
39197;BME280;42889;51.112;13.772;2022-11-15T04:01:09;98980.81;;;4.95;100.00
39197;BME280;42889;51.112;13.772;2022-11-15T04:03:55;98984.00;;;4.78;100.00
39197;BME280;42889;51.112;13.772;2022-11-15T04:06:40;98976.81;;;4.57;100.00
39197;BME280;42889;51.112;13.772;2022-11-15T04:09:25;98970.72;;;4.98;100.00
39197;BME280;42889;51.112;13.772;2022-11-15T04:12:11;98970.72;;;4.98;100.00
39197;BME280;42889;51.112;13.772;2022-11-15T04:15:04;98969.19;;;5.17;100.00
39197;BME280;42889;51.112;13.772;2022-11-15T04:17:57;98967.16;;;5.09;100.00
39197;BME280;42889;51.112;13.772;2022-11-15T04:20:43;98972.13;;;5.14;100.00
39197;BME280;42889;51.112;13.772;2022-11-15T04:23:47;98968.53;;;5.03;100.00
39197;BME280;42889;51.112;13.772;2022-11-15T04:26:38;98979.88;;;4.85;100.00
39197;BME280;42889;51.112;13.772;2022-11-15T04:29:24;98977.06;;;4.86;100.00
39197;BME280;42889;51.112;13.772;2022-11-15T04:32:24;98971.81;;;4.64;100.00
39197;BME280;42889;51.112;13.772;2022-11-15T04:35:10;98969.69;;;4.46;100.00
39197;BME280;42889;51.112;13.772;2022-11-15T04:37:56;98967.78;;;4.26;100.00
39197;BME280;42889;51.112;13.772;2022-11-15T04:40:42;98960.50;;;4.28;100.00
39197;BME280;42889;51.112;13.772;2022-11-15T04:43:28;98961.97;;;4.21;100.00
39197;BME280;42889;51.112;13.772;2022-11-15T04:46:15;98961.38;;;4.06;100.00
39197;BME280;42889;51.112;13.772;2022-11-15T04:49:01;98949.75;;;4.18;100.00
39197;BME280;42889;51.112;13.772;2022-11-15T04:51:46;98956.88;;;4.29;100.00
39197;BME280;42889;51.112;13.772;2022-11-15T04:54:32;98944.50;;;4.39;100.00
39197;BME280;42889;51.112;13.772;2022-11-15T04:57:18;98944.94;;;4.88;100.00
39197;BME280;42889;51.112;13.772;2022-11-15T05:00:06;98956.72;;;5.17;100.00
39197;BME280;42889;51.112;13.772;2022-11-15T05:03:14;98952.41;;;5.26;100.00
39197;BME280;42889;51.112;13.772;2022-11-15T05:06:40;98950.31;;;5.29;100.00
39197;BME280;42889;51.112;13.772;2022-11-15T05:09:40;98951.88;;;5.32;100.00
39197;BME280;42889;51.112;13.772;2022-11-15T05:12:41;98950.91;;;5.12;100.00
39197;BME280;42889;51.112;13.772;2022-11-15T05:15:27;98942.94;;;4.80;100.00
39197;BME280;42889;51.112;13.772;2022-11-15T05:18:12;98948.44;;;4.67;100.00
39197;BME280;42889;51.112;13.772;2022-11-15T05:21:23;98949.94;;;4.49;100.00
39197;BME280;42889;51.112;13.772;2022-11-15T05:24:31;98942.22;;;4.35;100.00
39197;BME280;42889;51.112;13.772;2022-11-15T05:27:16;98938.50;;;4.15;100.00
39197;BME280;42889;51.112;13.772;2022-11-15T05:30:02;98930.84;;;4.21;100.00
39197;BME280;42889;51.112;13.772;2022-11-15T05:32:48;98939.78;;;4.32;100.00
39197;BME280;42889;51.112;13.772;2022-11-15T05:35:38;98943.00;;;4.03;100.00
39197;BME280;42889;51.112;13.772;2022-11-15T05:38:25;98945.41;;;3.95;100.00
39197;BME280;42889;51.112;13.772;2022-11-15T05:41:11;98943.50;;;3.75;100.00
39197;BME280;42889;51.112;13.772;2022-11-15T05:44:05;98939.97;;;3.52;100.00
39197;BME280;42889;51.112;13.772;2022-11-15T05:46:53;98945.75;;;3.68;100.00
39197;BME280;42889;51.112;13.772;2022-11-15T05:50:11;98941.53;;;3.65;100.00
39197;BME280;42889;51.112;13.772;2022-11-15T05:52:57;98945.88;;;3.66;100.00
39197;BME280;42889;51.112;13.772;2022-11-15T05:55:49;98936.34;;;3.86;100.00
39197;BME280;42889;51.112;13.772;2022-11-15T05:58:36;98934.75;;;3.84;100.00
39197;BME280;42889;51.112;13.772;2022-11-15T06:01:24;98928.84;;;4.03;100.00
39197;BME280;42889;51.112;13.772;2022-11-15T06:04:33;98939.25;;;3.83;100.00
39197;BME280;42889;51.112;13.772;2022-11-15T06:07:21;98934.53;;;3.87;100.00
39197;BME280;42889;51.112;13.772;2022-11-15T06:10:07;98945.66;;;3.69;100.00
39197;BME280;42889;51.112;13.772;2022-11-15T06:13:01;98947.69;;;3.55;100.00
39197;BME280;42889;51.112;13.772;2022-11-15T06:15:47;98950.22;;;3.56;100.00
39197;BME280;42889;51.112;13.772;2022-11-15T06:18:35;98948.81;;;3.63;100.00
39197;BME280;42889;51.112;13.772;2022-11-15T06:21:21;98940.34;;;3.58;100.00
39197;BME280;42889;51.112;13.772;2022-11-15T06:24:07;98941.88;;;3.50;100.00
39197;BME280;42889;51.112;13.772;2022-11-15T06:26:53;98933.91;;;3.61;100.00
39197;BME280;42889;51.112;13.772;2022-11-15T06:29:39;98946.38;;;3.60;100.00
39197;BME280;42889;51.112;13.772;2022-11-15T06:32:28;98956.03;;;3.73;100.00
39197;BME280;42889;51.112;13.772;2022-11-15T06:35:14;98959.81;;;3.70;100.00
39197;BME280;42889;51.112;13.772;2022-11-15T06:38:06;98956.78;;;3.63;100.00
39197;BME280;42889;51.112;13.772;2022-11-15T06:41:00;98963.94;;;3.63;100.00
39197;BME280;42889;51.112;13.772;2022-11-15T06:43:46;98952.81;;;3.80;100.00
39197;BME280;42889;51.112;13.772;2022-11-15T06:49:29;98939.69;;;4.22;100.00
39197;BME280;42889;51.112;13.772;2022-11-15T06:52:23;98938.63;;;4.13;100.00
39197;BME280;42889;51.112;13.772;2022-11-15T06:55:16;98944.72;;;4.47;100.00
39197;BME280;42889;51.112;13.772;2022-11-15T06:58:50;98948.72;;;4.85;100.00
39197;BME280;42889;51.112;13.772;2022-11-15T07:02:04;98950.03;;;4.91;100.00
39197;BME280;42889;51.112;13.772;2022-11-15T07:11:13;98950.22;;;4.67;100.00
39197;BME280;42889;51.112;13.772;2022-11-15T07:14:46;98947.16;;;4.83;100.00
39197;BME280;42889;51.112;13.772;2022-11-15T07:55:00;98974.91;;;6.26;100.00
39197;BME280;42889;51.112;13.772;2022-11-15T07:57:46;98957.19;;;6.35;100.00
39197;BME280;42889;51.112;13.772;2022-11-15T08:00:37;98965.13;;;6.56;100.00
39197;BME280;42889;51.112;13.772;2022-11-15T08:03:22;98965.00;;;6.67;100.00
39197;BME280;42889;51.112;13.772;2022-11-15T08:06:07;98968.25;;;6.71;100.00
39197;BME280;42889;51.112;13.772;2022-11-15T08:08:53;98961.75;;;6.73;100.00
39197;BME280;42889;51.112;13.772;2022-11-15T08:11:38;98956.81;;;6.69;100.00
39197;BME280;42889;51.112;13.772;2022-11-15T08:14:24;98959.91;;;6.64;100.00
39197;BME280;42889;51.112;13.772;2022-11-15T08:17:10;98964.16;;;6.67;100.00
39197;BME280;42889;51.112;13.772;2022-11-15T08:19:55;98959.06;;;6.64;100.00
39197;BME280;42889;51.112;13.772;2022-11-15T08:22:41;98953.34;;;6.88;100.00
39197;BME280;42889;51.112;13.772;2022-11-15T08:25:27;98947.97;;;7.07;100.00
39197;BME280;42889;51.112;13.772;2022-11-15T08:28:16;98955.84;;;7.37;100.00
39197;BME280;42889;51.112;13.772;2022-11-15T08:31:03;98954.53;;;7.51;100.00
39197;BME280;42889;51.112;13.772;2022-11-15T08:33:48;98949.59;;;7.66;100.00
39197;BME280;42889;51.112;13.772;2022-11-15T08:36:41;98955.41;;;7.99;100.00
39197;BME280;42889;51.112;13.772;2022-11-15T08:39:35;98945.63;;;8.62;98.88
39197;BME280;42889;51.112;13.772;2022-11-15T08:43:00;98942.53;;;8.85;93.73
39197;BME280;42889;51.112;13.772;2022-11-15T08:46:13;98945.97;;;8.77;94.33
39197;BME280;42889;51.112;13.772;2022-11-15T08:49:04;98946.97;;;8.76;94.27
39197;BME280;42889;51.112;13.772;2022-11-15T08:52:10;98942.81;;;9.17;91.81
39197;BME280;42889;51.112;13.772;2022-11-15T09:07:19;98913.78;;;13.75;67.27
39197;BME280;42889;51.112;13.772;2022-11-15T09:10:32;98906.53;;;13.75;66.27
39197;BME280;42889;51.112;13.772;2022-11-15T09:13:38;98907.72;;;13.73;66.67
39197;BME280;42889;51.112;13.772;2022-11-15T09:16:46;98919.88;;;12.62;69.91
39197;BME280;42889;51.112;13.772;2022-11-15T09:19:34;98917.94;;;12.48;71.52
39197;BME280;42889;51.112;13.772;2022-11-15T09:22:20;98914.69;;;12.21;71.70
39197;BME280;42889;51.112;13.772;2022-11-15T09:25:06;98922.06;;;11.55;76.28
39197;BME280;42889;51.112;13.772;2022-11-15T09:27:55;98929.81;;;11.42;77.00
39197;BME280;42889;51.112;13.772;2022-11-15T09:30:40;98921.56;;;11.19;76.00
39197;BME280;42889;51.112;13.772;2022-11-15T09:33:27;98920.03;;;10.92;77.52
39197;BME280;42889;51.112;13.772;2022-11-15T09:36:13;98921.41;;;11.13;76.58
39197;BME280;42889;51.112;13.772;2022-11-15T09:38:58;98911.94;;;10.92;78.20
39197;BME280;42889;51.112;13.772;2022-11-15T09:45:10;98917.34;;;11.49;75.95
39197;BME280;42889;51.112;13.772;2022-11-15T09:51:27;98906.59;;;12.21;75.21
39197;BME280;42889;51.112;13.772;2022-11-15T09:54:05;98893.78;;;12.77;73.53
39197;BME280;42889;51.112;13.772;2022-11-15T09:57:04;98893.16;;;13.21;69.21
39197;BME280;42889;51.112;13.772;2022-11-15T09:59:50;98895.88;;;13.59;68.48
39197;BME280;42889;51.112;13.772;2022-11-15T10:05:01;98891.16;;;12.92;73.27
39197;BME280;42889;51.112;13.772;2022-11-15T10:07:37;98893.03;;;12.91;72.57
39197;BME280;42889;51.112;13.772;2022-11-15T10:12:55;98884.84;;;12.54;73.34
39197;BME280;42889;51.112;13.772;2022-11-15T10:15:22;98877.88;;;12.59;75.47
39197;BME280;42889;51.112;13.772;2022-11-15T10:18:17;98869.81;;;12.51;74.42
39197;BME280;42889;51.112;13.772;2022-11-15T10:20:59;98875.81;;;12.70;74.53
39197;BME280;42889;51.112;13.772;2022-11-15T10:23:27;98873.09;;;12.70;72.00
39197;BME280;42889;51.112;13.772;2022-11-15T10:25:57;98869.72;;;12.90;72.68
39197;BME280;42889;51.112;13.772;2022-11-15T10:28:32;98866.91;;;12.84;72.76
39197;BME280;42889;51.112;13.772;2022-11-15T10:31:00;98868.88;;;12.90;74.36
39197;BME280;42889;51.112;13.772;2022-11-15T10:33:36;98851.78;;;12.98;73.81
39197;BME280;42889;51.112;13.772;2022-11-15T10:46:37;98834.97;;;13.78;68.96
39197;BME280;42889;51.112;13.772;2022-11-15T10:49:21;98832.84;;;14.03;64.99
39197;BME280;42889;51.112;13.772;2022-11-15T10:51:51;98832.34;;;14.14;64.85
39197;BME280;42889;51.112;13.772;2022-11-15T10:54:25;98832.63;;;14.04;65.08
39197;BME280;42889;51.112;13.772;2022-11-15T10:56:56;98830.03;;;14.62;63.96
39197;BME280;42889;51.112;13.772;2022-11-15T10:59:31;98835.31;;;14.91;62.79
39197;BME280;42889;51.112;13.772;2022-11-15T11:02:28;98824.97;;;16.27;57.97
39197;BME280;42889;51.112;13.772;2022-11-15T11:04:56;98815.63;;;16.43;56.89
39197;BME280;42889;51.112;13.772;2022-11-15T11:07:28;98816.81;;;16.88;54.16
39197;BME280;42889;51.112;13.772;2022-11-15T11:10:05;98803.22;;;17.15;52.16
39197;BME280;42889;51.112;13.772;2022-11-15T11:13:32;98797.03;;;16.40;54.33
39197;BME280;42889;51.112;13.772;2022-11-15T11:21:15;98791.09;;;15.68;56.57
39197;BME280;42889;51.112;13.772;2022-11-15T11:23:54;98794.13;;;15.59;57.76
39197;BME280;42889;51.112;13.772;2022-11-15T11:29:13;98787.47;;;15.05;58.74
39197;BME280;42889;51.112;13.772;2022-11-15T11:34:41;98778.13;;;14.43;62.27
39197;BME280;42889;51.112;13.772;2022-11-15T11:37:37;98780.25;;;13.90;67.30
39197;BME280;42889;51.112;13.772;2022-11-15T11:42:50;98768.31;;;13.70;64.15
39197;BME280;42889;51.112;13.772;2022-11-15T11:48:14;98768.13;;;13.71;63.79
39197;BME280;42889;51.112;13.772;2022-11-15T11:50:42;98762.91;;;13.55;65.93
39197;BME280;42889;51.112;13.772;2022-11-15T11:53:15;98762.38;;;13.30;65.68
39197;BME280;42889;51.112;13.772;2022-11-15T11:55:50;98750.63;;;13.00;67.64
39197;BME280;42889;51.112;13.772;2022-11-15T11:58:23;98761.53;;;13.07;67.24
39197;BME280;42889;51.112;13.772;2022-11-15T12:00:55;98759.25;;;13.18;66.08
39197;BME280;42889;51.112;13.772;2022-11-15T12:03:34;98758.84;;;13.07;66.73
39197;BME280;42889;51.112;13.772;2022-11-15T12:11:52;98737.66;;;12.43;69.91
39197;BME280;42889;51.112;13.772;2022-11-15T12:14:27;98741.00;;;12.45;70.79
39197;BME280;42889;51.112;13.772;2022-11-15T12:16:57;98736.97;;;12.41;70.86
39197;BME280;42889;51.112;13.772;2022-11-15T12:19:24;98734.22;;;12.49;70.71
39197;BME280;42889;51.112;13.772;2022-11-15T12:27:25;98717.25;;;12.18;73.34
39197;BME280;42889;51.112;13.772;2022-11-15T12:30:01;98717.44;;;11.93;74.49
39197;BME280;42889;51.112;13.772;2022-11-15T12:32:36;98714.56;;;11.86;75.67
39197;BME280;42889;51.112;13.772;2022-11-15T12:35:06;98702.50;;;11.82;76.76
39197;BME280;42889;51.112;13.772;2022-11-15T12:37:49;98701.34;;;11.69;77.75
39197;BME280;42889;51.112;13.772;2022-11-15T12:43:42;98694.22;;;11.84;73.61
39197;BME280;42889;51.112;13.772;2022-11-15T12:45:48;98689.13;;;11.89;72.41
39197;BME280;42889;51.112;13.772;2022-11-15T12:58:49;98682.78;;;11.82;72.14
39197;BME280;42889;51.112;13.772;2022-11-15T13:06:48;98675.69;;;11.50;74.88
39197;BME280;42889;51.112;13.772;2022-11-15T13:11:55;98684.88;;;11.24;77.52
39197;BME280;42889;51.112;13.772;2022-11-15T13:14:43;98680.88;;;11.12;77.27
39197;BME280;42889;51.112;13.772;2022-11-15T13:17:22;98667.97;;;10.99;78.73
39197;BME280;42889;51.112;13.772;2022-11-15T13:19:53;98667.31;;;10.89;79.00
39197;BME280;42889;51.112;13.772;2022-11-15T13:22:26;98668.06;;;10.67;79.60
39197;BME280;42889;51.112;13.772;2022-11-15T13:30:50;98672.94;;;10.63;79.59
39197;BME280;42889;51.112;13.772;2022-11-15T13:33:25;98675.63;;;10.47;81.11
39197;BME280;42889;51.112;13.772;2022-11-15T13:36:05;98670.06;;;10.65;79.82
39197;BME280;42889;51.112;13.772;2022-11-15T13:38:35;98668.41;;;10.47;80.35
39197;BME280;42889;51.112;13.772;2022-11-15T13:41:20;98669.59;;;10.45;80.08
39197;BME280;42889;51.112;13.772;2022-11-15T13:43:48;98665.88;;;10.46;79.68
39197;BME280;42889;51.112;13.772;2022-11-15T13:46:19;98654.41;;;10.60;78.71
39197;BME280;42889;51.112;13.772;2022-11-15T13:48:55;98652.78;;;10.51;78.64
39197;BME280;42889;51.112;13.772;2022-11-15T13:51:46;98660.19;;;10.41;79.27
39197;BME280;42889;51.112;13.772;2022-11-15T13:57:16;98663.00;;;10.07;81.43
39197;BME280;42889;51.112;13.772;2022-11-15T13:59:48;98644.84;;;9.92;81.71
39197;BME280;42889;51.112;13.772;2022-11-15T14:02:25;98654.94;;;9.90;82.75
39197;BME280;42889;51.112;13.772;2022-11-15T14:04:58;98649.56;;;9.90;81.99
39197;BME280;42889;51.112;13.772;2022-11-15T14:07:27;98647.69;;;9.74;83.18
39197;BME280;42889;51.112;13.772;2022-11-15T14:09:55;98653.19;;;9.57;84.04
39197;BME280;42889;51.112;13.772;2022-11-15T14:12:32;98647.00;;;9.56;83.89
39197;BME280;42889;51.112;13.772;2022-11-15T14:17:45;98650.81;;;9.45;82.26
39197;BME280;42889;51.112;13.772;2022-11-15T14:20:20;98651.78;;;9.36;83.41
39197;BME280;42889;51.112;13.772;2022-11-15T14:23:23;98647.44;;;9.35;83.08
39197;BME280;42889;51.112;13.772;2022-11-15T14:25:56;98645.88;;;9.24;82.87
39197;BME280;42889;51.112;13.772;2022-11-15T14:30:54;98639.44;;;9.09;85.08
39197;BME280;42889;51.112;13.772;2022-11-15T14:36:04;98633.16;;;8.92;85.45
39197;BME280;42889;51.112;13.772;2022-11-15T14:38:31;98633.81;;;8.86;85.71
39197;BME280;42889;51.112;13.772;2022-11-15T14:40:59;98623.75;;;8.54;88.00
39197;BME280;42889;51.112;13.772;2022-11-15T14:43:25;98622.63;;;8.65;87.09
39197;BME280;42889;51.112;13.772;2022-11-15T14:45:52;98623.91;;;8.53;88.49
39197;BME280;42889;51.112;13.772;2022-11-15T14:48:19;98631.75;;;8.28;89.32
39197;BME280;42889;51.112;13.772;2022-11-15T14:50:46;98623.50;;;8.22;89.94
39197;BME280;42889;51.112;13.772;2022-11-15T14:53:17;98629.31;;;8.17;90.03
39197;BME280;42889;51.112;13.772;2022-11-15T14:55:44;98620.44;;;8.16;89.90
39197;BME280;42889;51.112;13.772;2022-11-15T14:58:11;98624.00;;;7.99;91.15
39197;BME280;42889;51.112;13.772;2022-11-15T15:00:39;98621.09;;;7.92;92.15
39197;BME280;42889;51.112;13.772;2022-11-15T15:03:07;98626.97;;;7.78;92.32
39197;BME280;42889;51.112;13.772;2022-11-15T15:05:35;98619.13;;;7.77;91.85
39197;BME280;42889;51.112;13.772;2022-11-15T15:08:02;98627.81;;;7.79;91.94
39197;BME280;42889;51.112;13.772;2022-11-15T15:10:40;98620.41;;;7.55;93.18
39197;BME280;42889;51.112;13.772;2022-11-15T15:13:19;98622.63;;;7.59;92.79
39197;BME280;42889;51.112;13.772;2022-11-15T15:15:47;98618.88;;;7.70;92.05
39197;BME280;42889;51.112;13.772;2022-11-15T15:18:15;98626.22;;;7.68;92.35
39197;BME280;42889;51.112;13.772;2022-11-15T15:20:43;98615.84;;;7.47;92.94
39197;BME280;42889;51.112;13.772;2022-11-15T15:23:17;98609.97;;;7.16;94.94
39197;BME280;42889;51.112;13.772;2022-11-15T15:25:44;98609.47;;;7.03;96.05
39197;BME280;42889;51.112;13.772;2022-11-15T15:28:12;98601.25;;;6.86;97.10
39197;BME280;42889;51.112;13.772;2022-11-15T15:30:40;98597.31;;;6.81;97.46
39197;BME280;42889;51.112;13.772;2022-11-15T15:33:06;98604.03;;;6.67;98.82
39197;BME280;42889;51.112;13.772;2022-11-15T15:35:55;98604.03;;;6.67;98.41
39197;BME280;42889;51.112;13.772;2022-11-15T15:43:29;98598.19;;;6.54;99.49
39197;BME280;42889;51.112;13.772;2022-11-15T15:46:45;98611.59;;;6.34;100.00
39197;BME280;42889;51.112;13.772;2022-11-15T15:49:12;98607.09;;;6.25;100.00
39197;BME280;42889;51.112;13.772;2022-11-15T15:51:39;98613.19;;;6.08;100.00
39197;BME280;42889;51.112;13.772;2022-11-15T15:54:05;98612.09;;;6.01;100.00
39197;BME280;42889;51.112;13.772;2022-11-15T15:56:32;98609.28;;;5.93;100.00
39197;BME280;42889;51.112;13.772;2022-11-15T15:58:59;63530.91;;;-146.37;100.00
39197;BME280;42889;51.112;13.772;2022-11-15T16:01:26;98606.44;;;5.85;nan
39197;BME280;42889;51.112;13.772;2022-11-15T16:03:53;98602.53;;;5.79;nan
39197;BME280;42889;51.112;13.772;2022-11-15T16:06:33;98601.13;;;5.75;nan
39197;BME280;42889;51.112;13.772;2022-11-15T16:09:02;98599.44;;;5.74;nan
39197;BME280;42889;51.112;13.772;2022-11-15T16:11:46;98606.44;;;5.75;nan
39197;BME280;42889;51.112;13.772;2022-11-15T16:14:13;98612.22;;;5.61;nan
39197;BME280;42889;51.112;13.772;2022-11-15T16:16:40;98608.44;;;5.63;nan
39197;BME280;42889;51.112;13.772;2022-11-15T16:19:08;98611.66;;;5.57;nan
39197;BME280;42889;51.112;13.772;2022-11-15T16:21:36;98605.34;;;5.39;nan
39197;BME280;42889;51.112;13.772;2022-11-15T16:24:03;98596.19;;;5.41;nan
39197;BME280;42889;51.112;13.772;2022-11-15T16:26:32;98607.56;;;5.24;nan
39197;BME280;42889;51.112;13.772;2022-11-15T16:29:01;98602.25;;;5.34;nan
39197;BME280;42889;51.112;13.772;2022-11-15T16:31:28;98601.69;;;5.40;nan
39197;BME280;42889;51.112;13.772;2022-11-15T16:33:55;98603.66;;;5.28;nan
39197;BME280;42889;51.112;13.772;2022-11-15T16:36:25;98603.88;;;5.15;nan
39197;BME280;42889;51.112;13.772;2022-11-15T16:38:56;98591.56;;;5.24;nan
39197;BME280;42889;51.112;13.772;2022-11-15T16:41:24;98598.53;;;5.15;nan
39197;BME280;42889;51.112;13.772;2022-11-15T16:43:51;98599.69;;;5.13;nan
39197;BME280;42889;51.112;13.772;2022-11-15T16:46:20;98593.38;;;5.14;nan
39197;BME280;42889;51.112;13.772;2022-11-15T17:45:10;98554.44;;;4.42;nan
39197;BME280;42889;51.112;13.772;2022-11-15T17:47:37;98550.00;;;4.52;nan
39197;BME280;42889;51.112;13.772;2022-11-15T17:50:05;98544.72;;;4.62;nan
39197;BME280;42889;51.112;13.772;2022-11-15T17:52:32;98557.50;;;4.78;nan
39197;BME280;42889;51.112;13.772;2022-11-15T17:54:59;98544.44;;;4.74;nan
39197;BME280;42889;51.112;13.772;2022-11-15T17:57:26;98552.84;;;4.70;nan
39197;BME280;42889;51.112;13.772;2022-11-15T18:15:36;98535.31;;;4.27;nan
39197;BME280;42889;51.112;13.772;2022-11-15T18:18:03;98532.69;;;4.37;nan
39197;BME280;42889;51.112;13.772;2022-11-15T18:20:30;98517.16;;;4.42;nan
39197;BME280;42889;51.112;13.772;2022-11-15T18:22:57;98515.06;;;4.45;nan
39197;BME280;42889;51.112;13.772;2022-11-15T18:25:23;98513.66;;;4.41;nan
39197;BME280;42889;51.112;13.772;2022-11-15T18:39:33;98501.75;;;4.45;nan
39197;BME280;42889;51.112;13.772;2022-11-15T18:42:00;98492.88;;;4.35;nan
39197;BME280;42889;51.112;13.772;2022-11-15T18:44:28;98494.13;;;4.31;nan
39197;BME280;42889;51.112;13.772;2022-11-15T18:46:58;98494.97;;;4.32;nan
39197;BME280;42889;51.112;13.772;2022-11-15T18:49:26;98495.66;;;4.34;nan
39197;BME280;42889;51.112;13.772;2022-11-15T18:51:53;98494.16;;;4.41;nan
39197;BME280;42889;51.112;13.772;2022-11-15T18:54:20;98490.22;;;4.35;nan